Archival Weather

Komakuk Beach

Komakuk Beach, Canada (CWKM)

Report from: Saturday, April 1, 2023 9:00 PM UTC
Current time: Sunday, October 1, 2023 3:18 AM UTC

Current weather
Weather history
Weather forecast

Present weatherSM
Temperature-14.0°C (6.8°F)
Wind chill-26.6°C (-15.9°F)
Dew point-18.0°C (-0.4°F)
Winds 24 kts (12.3 m/s, 27.6 mph) East (100°)
Visibility0 mi. (0 km)
Clouds Sky clear
Altimeter29.92 in.Hg (1013 mB)
Relative humidity72 %
Density altitude-3,631 ft. (-1,107 m)
Remarks Fully automated report
No clouds detected
Flight conditions Low Instrument Meteorological Conditions
Raw dataCWKM 012100Z AUTO 10024KT ////SM NCD M14/M18 A2992
An error has occurred. This application may no longer respond until reloaded. Reload 🗙